Wilson Lahn — 8PUO — position and weather

sailwx.info

Track history (hours):
 
Tides and Currents Weather Stations Pressure Air Temp Water Temp Dewpoint Dewpoint Depression Visibility Wind Speed Wind Dir Waves Ship Positions

Wilson Lahn

Last reported at 2016-Jun-30 20:33 UTC. Time now 2016-Jun-30 21:27 UTC.
Position N 53°44' W 000°16'.

Length 83 m; draft 4 m.

Type: Cargo ship. MMSI: 314259000.

Date/timePositionNaut miles runAvg speedWind from/ knotsBaromVisibWave heightAir tempDewpointWater temp
2016-Jun-30 20:33N 53°44' W 000°16'0 0.0
2016-Jun-30 19:33N 53°44' W 000°16'0 0.0
2016-Jun-30 18:31N 53°44' W 000°16'0 0.0
2016-Jun-30 17:31N 53°44' W 000°16'0 0.0
2016-Jun-30 16:31N 53°44' W 000°16'0 0.0
2016-Jun-30 15:31N 53°44' W 000°16'0 0.0
2016-Jun-30 14:31N 53°44' W 000°16'0 0.0
2016-Jun-30 13:31N 53°44' W 000°16'0 0.0
2016-Jun-30 12:25N 53°44' W 000°16'0 0.0
2016-Jun-30 11:31N 53°44' W 000°16'0 0.0
2016-Jun-30 10:31N 53°44' W 000°16'0 0.0
2016-Jun-30 09:31N 53°44' W 000°16'0 0.0
2016-Jun-30 08:31N 53°44' W 000°16'0 0.0
2016-Jun-30 07:31N 53°44' W 000°16'0 0.0
2016-Jun-30 06:31N 53°44' W 000°16'0 0.0
2016-Jun-30 05:31N 53°44' W 000°16'0 0.0
2016-Jun-30 04:31N 53°44' W 000°16'0 0.0
2016-Jun-30 03:31N 53°44' W 000°16'0 0.0
2016-Jun-30 02:31N 53°44' W 000°16'0 0.0
2016-Jun-30 01:31N 53°44' W 000°16'0 0.0
2016-Jun-30 00:31N 53°44' W 000°16'0 0.0
2016-Jun-29 23:31N 53°44' W 000°16'0 0.0
2016-Jun-29 22:31N 53°44' W 000°16'0 0.0
2016-Jun-29 21:31N 53°44' W 000°16'0 0.0
2016-Jun-29 20:31N 53°44' W 000°16'0 0.0
2016-Jun-29 19:31N 53°44' W 000°16'0 0.0
2016-Jun-29 18:31N 53°44' W 000°16'0 0.0
2016-Jun-29 17:31N 53°44' W 000°16'0 0.0
2016-Jun-29 16:31N 53°44' W 000°16'0 0.0
2016-Jun-29 15:31N 53°44' W 000°16'0 0.0
2016-Jun-29 14:31N 53°44' W 000°16'0 0.0
2016-Jun-29 13:31N 53°44' W 000°16'0 0.3
2016-Jun-29 12:33N 53°45' W 000°16'3 2.6
2016-Jun-29 11:33N 53°42' W 000°14'9 9.0
2016-Jun-29 10:33N 53°36' W 000°02'10 9.6
2016-Jun-29 09:34N 53°33' E 000°13'5 5.1
2016-Jun-29 08:33N 53°31' E 000°20'21 6.8
2016-Jun-29 05:30N 53°15' E 000°43'1110.7
2016-Jun-29 04:29N 53°07' E 000°57'9 9.5
2016-Jun-29 03:32N 53°02' E 001°09'8 8.6
2016-Jun-29 02:33N 52°58' E 001°21'8 8.2
2016-Jun-29 01:34N 52°55' E 001°33'9 8.8
2016-Jun-29 00:33N 52°51' E 001°46'8510.6
2016-Jun-28 16:33N 52°05' E 003°43'1111.4
2016-Jun-28 15:33N 52°00' E 003°60'1312.6
2016-Jun-28 14:33N 51°54' E 004°18'1010.4
2016-Jun-28 13:34N 51°50' E 004°33'8 8.3
2016-Jun-28 12:33N 51°42' E 004°35'0 0.0
2016-Jun-28 02:32N 51°41' E 004°36'0 0.0
2016-Jun-28 01:11N 51°41' E 004°36'0 0.0
2016-Jun-28 00:11N 51°41' E 004°36'0 0.0
2016-Jun-27 22:17N 51°41' E 004°36'0 0.2
2016-Jun-27 20:33N 51°42' E 004°35'8 8.4
2016-Jun-27 19:34N 51°50' E 004°33'9 9.1
2016-Jun-27 18:34N 51°54' E 004°19'1111.2
2016-Jun-27 17:34N 51°59' E 004°04'1010.2
2016-Jun-27 16:34N 52°02' E 003°47'1311.0
2016-Jun-27 15:25N 52°14' E 003°47'10910.0
2016-Jun-27 04:33N 53°56' E 004°52'1010.2
2016-Jun-27 03:33N 54°06' E 004°58'1010.0
2016-Jun-27 02:31N 54°16' E 005°01'25010.4
2016-Jun-26 02:28N 58°25' E 004°53'1010.9
2016-Jun-26 01:31N 58°36' E 004°51'1111.2
2016-Jun-26 00:33N 58°46' E 004°49'1111.0
2016-Jun-25 23:32N 58°58' E 004°47'1110.9
2016-Jun-25 22:33N 59°08' E 004°45'15710.2
2016-Jun-25 07:14N 61°45' E 004°34'811.7
2016-Jun-25 06:33N 61°53' E 004°39'8810.8
2016-Jun-24 22:26N 62°60' E 006°40'1110.9
2016-Jun-24 21:24N 63°06' E 007°00'910.4
2016-Jun-24 20:34N 63°12' E 007°15'1010.4
2016-Jun-24 19:34N 63°15' E 007°37'1110.6
2016-Jun-24 18:34N 63°15' E 008°01'3411.2
2016-Jun-24 15:33N 63°30' E 009°07'1111.3
2016-Jun-24 14:33N 63°36' E 009°29'9 7.7
2016-Jun-24 13:26N 63°36' E 009°48'910.2
2016-Jun-24 12:33N 63°28' E 009°57'9 9.3
2016-Jun-24 11:33N 63°19' E 009°53'0 0.2
2016-Jun-24 10:32N 63°19' E 009°53'0 0.0
2016-Jun-24 09:32N 63°19' E 009°53'0 0.0
2016-Jun-24 08:29N 63°19' E 009°53'0 0.0
2016-Jun-24 07:33N 63°19' E 009°53'0 0.0
2016-Jun-24 04:33N 63°19' E 009°53'0 0.0
2016-Jun-24 03:33N 63°19' E 009°53'0 0.0
2016-Jun-24 02:33N 63°19' E 009°53'0 0.0
2016-Jun-24 01:34N 63°19' E 009°53'0 0.0
2016-Jun-24 00:33N 63°19' E 009°53'0 0.0
2016-Jun-23 23:33N 63°19' E 009°53'0 0.0
2016-Jun-23 22:33N 63°19' E 009°53'0 0.0
2016-Jun-23 21:33N 63°19' E 009°53'0 0.0
2016-Jun-23 20:33N 63°19' E 009°53'0 0.1
2016-Jun-23 19:33N 63°19' E 009°53'1010.5
2016-Jun-23 18:33N 63°27' E 010°09'7 7.4
2016-Jun-23 17:33N 63°27' E 010°25'0 0.0
2016-Jun-23 16:33N 63°27' E 010°25'0 0.0
2016-Jun-23 15:33N 63°27' E 010°25'1 1.1
2016-Jun-23 14:34N 63°28' E 010°26'1212.0
2016-Jun-23 13:33N 63°38' E 010°40'1212.3
2016-Jun-23 12:34N 63°44' E 011°04'10 9.1
2016-Jun-23 11:25N 63°48' E 011°26'0 0.0
2016-Jun-23 07:31N 63°48' E 011°26'11 1.1
2016-Jun-22 21:32N 63°44' E 011°04'1111.1
2016-Jun-22 20:33N 63°38' E 010°43'1111.3
2016-Jun-22 19:33N 63°32' E 010°22'1111.1
2016-Jun-22 18:33N 63°29' E 009°58'1010.2
2016-Jun-22 17:33N 63°38' E 009°47'8 8.4
2016-Jun-22 16:33N 63°36' E 009°29'10 9.8
2016-Jun-22 15:33N 63°31' E 009°10'  
Track history (hours):
 
Tides and Currents Weather Stations Pressure Air Temp Water Temp Dewpoint Dewpoint Depression Visibility Wind Speed Wind Dir Waves Ship Positions

Wilson Lahn

Last reported at 2016-Jun-30 20:33 UTC. Time now 2016-Jun-30 21:27 UTC.
Position N 53°44' W 000°16'.

Length 83 m; draft 4 m.

Type: Cargo ship. MMSI: 314259000.

Date/timePositionNaut miles runAvg speedWind from/ knotsBaromVisibWave heightAir tempDewpointWater temp
2016-Jun-30 20:33N 53°44' W 000°16'0 0.0
2016-Jun-30 19:33N 53°44' W 000°16'0 0.0
2016-Jun-30 18:31N 53°44' W 000°16'0 0.0
2016-Jun-30 17:31N 53°44' W 000°16'0 0.0
2016-Jun-30 16:31N 53°44' W 000°16'0 0.0
2016-Jun-30 15:31N 53°44' W 000°16'0 0.0
2016-Jun-30 14:31N 53°44' W 000°16'0 0.0
2016-Jun-30 13:31N 53°44' W 000°16'0 0.0
2016-Jun-30 12:25N 53°44' W 000°16'0 0.0
2016-Jun-30 11:31N 53°44' W 000°16'0 0.0
2016-Jun-30 10:31N 53°44' W 000°16'0 0.0
2016-Jun-30 09:31N 53°44' W 000°16'0 0.0
2016-Jun-30 08:31N 53°44' W 000°16'0 0.0
2016-Jun-30 07:31N 53°44' W 000°16'0 0.0
2016-Jun-30 06:31N 53°44' W 000°16'0 0.0
2016-Jun-30 05:31N 53°44' W 000°16'0 0.0
2016-Jun-30 04:31N 53°44' W 000°16'0 0.0
2016-Jun-30 03:31N 53°44' W 000°16'0 0.0
2016-Jun-30 02:31N 53°44' W 000°16'0 0.0
2016-Jun-30 01:31N 53°44' W 000°16'0 0.0
2016-Jun-30 00:31N 53°44' W 000°16'0 0.0
2016-Jun-29 23:31N 53°44' W 000°16'0 0.0
2016-Jun-29 22:31N 53°44' W 000°16'0 0.0
2016-Jun-29 21:31N 53°44' W 000°16'0 0.0
2016-Jun-29 20:31N 53°44' W 000°16'0 0.0
2016-Jun-29 19:31N 53°44' W 000°16'0 0.0
2016-Jun-29 18:31N 53°44' W 000°16'0 0.0
2016-Jun-29 17:31N 53°44' W 000°16'0 0.0
2016-Jun-29 16:31N 53°44' W 000°16'0 0.0
2016-Jun-29 15:31N 53°44' W 000°16'0 0.0
2016-Jun-29 14:31N 53°44' W 000°16'0 0.0
2016-Jun-29 13:31N 53°44' W 000°16'0 0.3
2016-Jun-29 12:33N 53°45' W 000°16'3 2.6
2016-Jun-29 11:33N 53°42' W 000°14'9 9.0
2016-Jun-29 10:33N 53°36' W 000°02'10 9.6
2016-Jun-29 09:34N 53°33' E 000°13'5 5.1
2016-Jun-29 08:33N 53°31' E 000°20'21 6.8
2016-Jun-29 05:30N 53°15' E 000°43'1110.7
2016-Jun-29 04:29N 53°07' E 000°57'9 9.5
2016-Jun-29 03:32N 53°02' E 001°09'8 8.6
2016-Jun-29 02:33N 52°58' E 001°21'8 8.2
2016-Jun-29 01:34N 52°55' E 001°33'9 8.8
2016-Jun-29 00:33N 52°51' E 001°46'8510.6
2016-Jun-28 16:33N 52°05' E 003°43'1111.4
2016-Jun-28 15:33N 52°00' E 003°60'1312.6
2016-Jun-28 14:33N 51°54' E 004°18'1010.4
2016-Jun-28 13:34N 51°50' E 004°33'8 8.3
2016-Jun-28 12:33N 51°42' E 004°35'0 0.0
2016-Jun-28 02:32N 51°41' E 004°36'0 0.0
2016-Jun-28 01:11N 51°41' E 004°36'0 0.0
2016-Jun-28 00:11N 51°41' E 004°36'0 0.0
2016-Jun-27 22:17N 51°41' E 004°36'0 0.2
2016-Jun-27 20:33N 51°42' E 004°35'8 8.4
2016-Jun-27 19:34N 51°50' E 004°33'9 9.1
2016-Jun-27 18:34N 51°54' E 004°19'1111.2
2016-Jun-27 17:34N 51°59' E 004°04'1010.2
2016-Jun-27 16:34N 52°02' E 003°47'1311.0
2016-Jun-27 15:25N 52°14' E 003°47'10910.0
2016-Jun-27 04:33N 53°56' E 004°52'1010.2
2016-Jun-27 03:33N 54°06' E 004°58'1010.0
2016-Jun-27 02:31N 54°16' E 005°01'25010.4
2016-Jun-26 02:28N 58°25' E 004°53'1010.9
2016-Jun-26 01:31N 58°36' E 004°51'1111.2
2016-Jun-26 00:33N 58°46' E 004°49'1111.0
2016-Jun-25 23:32N 58°58' E 004°47'1110.9
2016-Jun-25 22:33N 59°08' E 004°45'15710.2
2016-Jun-25 07:14N 61°45' E 004°34'811.7
2016-Jun-25 06:33N 61°53' E 004°39'8810.8
2016-Jun-24 22:26N 62°60' E 006°40'1110.9
2016-Jun-24 21:24N 63°06' E 007°00'910.4
2016-Jun-24 20:34N 63°12' E 007°15'1010.4
2016-Jun-24 19:34N 63°15' E 007°37'1110.6
2016-Jun-24 18:34N 63°15' E 008°01'3411.2
2016-Jun-24 15:33N 63°30' E 009°07'1111.3
2016-Jun-24 14:33N 63°36' E 009°29'9 7.7
2016-Jun-24 13:26N 63°36' E 009°48'910.2
2016-Jun-24 12:33N 63°28' E 009°57'9 9.3
2016-Jun-24 11:33N 63°19' E 009°53'0 0.2
2016-Jun-24 10:32N 63°19' E 009°53'0 0.0
2016-Jun-24 09:32N 63°19' E 009°53'0 0.0
2016-Jun-24 08:29N 63°19' E 009°53'0 0.0
2016-Jun-24 07:33N 63°19' E 009°53'0 0.0
2016-Jun-24 04:33N 63°19' E 009°53'0 0.0
2016-Jun-24 03:33N 63°19' E 009°53'0 0.0
2016-Jun-24 02:33N 63°19' E 009°53'0 0.0
2016-Jun-24 01:34N 63°19' E 009°53'0 0.0
2016-Jun-24 00:33N 63°19' E 009°53'0 0.0
2016-Jun-23 23:33N 63°19' E 009°53'0 0.0
2016-Jun-23 22:33N 63°19' E 009°53'0 0.0
2016-Jun-23 21:33N 63°19' E 009°53'0 0.0
2016-Jun-23 20:33N 63°19' E 009°53'0 0.1
2016-Jun-23 19:33N 63°19' E 009°53'1010.5
2016-Jun-23 18:33N 63°27' E 010°09'7 7.4
2016-Jun-23 17:33N 63°27' E 010°25'0 0.0
2016-Jun-23 16:33N 63°27' E 010°25'0 0.0
2016-Jun-23 15:33N 63°27' E 010°25'1 1.1
2016-Jun-23 14:34N 63°28' E 010°26'1212.0
2016-Jun-23 13:33N 63°38' E 010°40'1212.3
2016-Jun-23 12:34N 63°44' E 011°04'10 9.1
2016-Jun-23 11:25N 63°48' E 011°26'0 0.0
2016-Jun-23 07:31N 63°48' E 011°26'11 1.1
2016-Jun-22 21:32N 63°44' E 011°04'1111.1
2016-Jun-22 20:33N 63°38' E 010°43'1111.3
2016-Jun-22 19:33N 63°32' E 010°22'1111.1
2016-Jun-22 18:33N 63°29' E 009°58'1010.2
2016-Jun-22 17:33N 63°38' E 009°47'8 8.4
2016-Jun-22 16:33N 63°36' E 009°29'10 9.8
2016-Jun-22 15:33N 63°31' E 009°10'  

Dump ship's entire track history